Time;durP1;ratioP1;P1;durP2;ratioP2;P2;SDS_P1;SDS_P2;PMS_P1;PMS_P2;Temp;Humidity;BMP_temperature;BMP_pressure;BME280_temperature;BME280_humidity;BME280_pressure;Samples;Min_cycle;Max_cycle;Signal;HPM_P1;HPM_P2
2022/10/30 00:02:24;;;;;;;12.93;4.03;;;;;;;17.67;99.65;101004.72;4979244;28;20081;-71
2022/10/30 00:04:49;;;;;;;10.13;4.15;;;;;;;17.75;99.25;100992.63;4987699;28;20442;-71
2022/10/30 00:07:15;;;;;;;8.27;3.95;;;;;;;17.69;99.77;100996.94;4991596;28;20027;-71
2022/10/30 00:09:40;;;;;;;14.90;3.97;;;;;;;17.60;100.00;101007.47;4989056;28;20517;-71
2022/10/30 00:12:06;;;;;;;10.65;4.28;;;;;;;17.60;100.00;101010.19;4987148;28;20418;-71
2022/10/30 00:14:31;;;;;;;9.30;3.67;;;;;;;17.52;100.00;101005.16;4994861;28;20048;-72
2022/10/30 00:16:56;;;;;;;12.68;4.20;;;;;;;17.48;100.00;101002.44;4995246;28;20072;-71
2022/10/30 00:19:22;;;;;;;5.13;3.42;;;;;;;17.47;100.00;100995.41;4990465;28;20034;-71
2022/10/30 00:21:47;;;;;;;9.10;3.80;;;;;;;17.44;100.00;100993.47;4977588;28;20086;-71
2022/10/30 00:24:13;;;;;;;6.93;3.72;;;;;;;17.61;100.00;100991.91;4990008;28;20038;-71
2022/10/30 00:26:38;;;;;;;9.48;3.92;;;;;;;17.68;100.00;100998.13;4991468;28;20134;-71
2022/10/30 00:29:03;;;;;;;9.25;3.75;;;;;;;17.62;100.00;100993.44;4990852;28;20039;-71
2022/10/30 00:31:29;;;;;;;8.48;3.65;;;;;;;17.59;100.00;100994.25;4986391;28;20038;-71
2022/10/30 00:33:54;;;;;;;10.15;3.55;;;;;;;17.67;99.89;101001.25;4978507;28;20038;-70
2022/10/30 00:36:21;;;;;;;11.23;3.30;;;;;;;17.53;100.00;100991.16;4989642;28;20532;-71
2022/10/30 00:38:46;;;;;;;11.60;3.97;;;;;;;17.58;100.00;100990.75;4991291;28;20553;-71
2022/10/30 00:41:21;;;;;;;13.73;3.83;;;;;;;17.59;100.00;100988.81;4980955;28;20034;-71
2022/10/30 00:43:47;;;;;;;11.18;3.88;;;;;;;17.59;100.00;100991.53;4981999;28;20042;-71
2022/10/30 00:46:38;;;;;;;12.55;4.45;;;;;;;17.54;100.00;100989.97;4989303;28;20669;-71
2022/10/30 00:49:10;;;;;;;6.50;3.63;;;;;;;17.50;100.00;100991.94;4973641;28;20042;-71
2022/10/30 00:51:40;;;;;;;15.57;3.80;;;;;;;17.51;100.00;100990.78;4989347;28;20035;-71
2022/10/30 00:54:06;;;;;;;7.53;3.50;;;;;;;17.55;100.00;100977.94;4986987;28;20045;-71
2022/10/30 00:56:33;;;;;;;6.47;3.50;;;;;;;17.54;100.00;100984.53;4989882;28;20041;-71
2022/10/30 00:59:03;;;;;;;7.93;3.25;;;;;;;17.45;100.00;100975.97;4989078;28;20030;-71
2022/10/30 01:01:34;;;;;;;8.80;3.80;;;;;;;17.40;100.00;100973.63;4989022;28;20197;-71
2022/10/30 01:04:02;;;;;;;5.72;3.17;;;;;;;17.40;100.00;100970.91;4989182;28;20050;-69
2022/10/30 01:06:31;;;;;;;5.80;3.33;;;;;;;17.34;100.00;100977.16;4989527;28;20026;-70
2022/10/30 01:08:57;;;;;;;6.93;3.80;;;;;;;17.27;100.00;100972.50;4989683;28;20034;-70
2022/10/30 01:11:23;;;;;;;7.57;3.72;;;;;;;17.28;100.00;100974.06;4986004;28;20042;-71
2022/10/30 01:13:50;;;;;;;8.02;2.92;;;;;;;17.17;100.00;100976.00;4989901;28;20053;-70
2022/10/30 01:16:29;;;;;;;5.53;3.45;;;;;;;17.23;100.00;100981.88;4991476;28;20097;-70
2022/10/30 01:19:26;;;;;;;5.40;2.83;;;;;;;17.21;100.00;100979.50;4980889;28;20041;-71
2022/10/30 01:22:10;;;;;;;8.32;3.78;;;;;;;17.21;99.98;100976.78;4971371;28;20407;-70
2022/10/30 01:25:03;;;;;;;8.23;3.65;;;;;;;17.20;99.67;100974.47;4967730;28;20082;-70
2022/10/30 01:27:41;;;;;;;9.27;3.50;;;;;;;17.20;99.75;100966.28;4985673;28;20035;-70
2022/10/30 01:30:37;;;;;;;7.70;3.80;;;;;;;17.21;99.86;100968.63;4985791;28;20143;-70
2022/10/30 01:33:27;;;;;;;6.88;3.30;;;;;;;17.19;99.88;100979.13;4962028;28;20585;-70
2022/10/30 01:35:59;;;;;;;5.72;3.25;;;;;;;17.13;99.58;100973.31;4986705;28;20440;-70
2022/10/30 01:38:46;;;;;;;6.20;3.60;;;;;;;17.17;99.30;100967.84;4974361;28;20034;-70
2022/10/30 01:41:12;;;;;;;7.10;3.17;;;;;;;17.11;99.21;100955.81;4987198;28;20125;-70
2022/10/30 01:43:44;;;;;;;8.00;3.78;;;;;;;17.10;99.64;100959.69;5004818;28;20368;-70
2022/10/30 01:46:34;;;;;;;10.23;3.42;;;;;;;17.09;99.83;100961.63;4988988;28;20049;-70
2022/10/30 01:49:38;;;;;;;6.85;3.80;;;;;;;17.05;99.80;100954.66;4984311;28;20615;-70
2022/10/30 01:52:27;;;;;;;8.15;2.85;;;;;;;17.03;99.84;100954.28;4976188;28;20039;-70
2022/10/30 01:55:08;;;;;;;8.45;3.85;;;;;;;17.03;100.00;100957.00;4978622;28;20076;-69
2022/10/30 01:57:48;;;;;;;9.70;3.70;;;;;;;17.04;99.82;100940.28;4978154;28;20034;-70
2022/10/30 02:00:16;;;;;;;4.83;2.93;;;;;;;17.06;99.86;100937.16;4986682;28;20038;-71
2022/10/30 02:02:48;;;;;;;5.28;3.05;;;;;;;17.00;100.00;100947.66;4975985;28;20035;-70
2022/10/30 02:05:26;;;;;;;7.72;3.60;;;;;;;17.03;99.57;100937.94;4975630;28;20487;-70
2022/10/30 02:07:53;;;;;;;7.70;3.03;;;;;;;17.11;99.90;100939.50;4992210;28;20042;-70
2022/10/30 02:10:18;;;;;;;9.18;3.30;;;;;;;17.22;99.46;100942.97;4989271;28;20030;-71
2022/10/30 02:12:44;;;;;;;6.28;2.95;;;;;;;17.17;99.38;100934.44;4984644;28;20022;-70
2022/10/30 02:15:11;;;;;;;8.00;3.20;;;;;;;17.10;99.50;100940.66;4991022;28;20034;-70
2022/10/30 02:17:39;;;;;;;5.18;2.50;;;;;;;17.14;99.66;100936.75;4974829;28;20113;-71
2022/10/30 02:20:06;;;;;;;10.32;3.20;;;;;;;17.13;99.12;100946.09;4992002;28;20088;-71
2022/10/30 02:22:31;;;;;;;9.50;2.92;;;;;;;17.06;99.52;100939.88;4992489;28;20026;-70
2022/10/30 02:24:57;;;;;;;9.95;3.17;;;;;;;17.02;99.61;100944.53;4988256;28;20561;-70
2022/10/30 02:27:23;;;;;;;7.75;3.13;;;;;;;17.01;99.43;100945.72;4999501;28;20081;-70
2022/10/30 02:29:49;;;;;;;8.82;3.45;;;;;;;17.01;99.79;100932.88;4989947;28;20117;-70
2022/10/30 02:32:14;;;;;;;16.08;2.97;;;;;;;16.93;99.34;100936.00;4992592;28;20100;-70
2022/10/30 02:34:41;;;;;;;5.32;2.97;;;;;;;16.86;99.19;100936.03;4968843;28;20448;-70
2022/10/30 02:37:07;;;;;;;8.70;3.58;;;;;;;16.81;99.41;100941.84;4991572;28;20058;-70
2022/10/30 02:39:33;;;;;;;7.38;3.47;;;;;;;16.78;99.55;100945.34;4991913;28;20407;-70
2022/10/30 02:42:00;;;;;;;8.95;3.28;;;;;;;16.72;99.20;100936.03;4990589;28;20038;-70
2022/10/30 02:44:26;;;;;;;6.72;3.20;;;;;;;16.69;99.34;100948.44;4969953;28;20045;-71
2022/10/30 02:46:52;;;;;;;5.65;3.17;;;;;;;16.68;99.32;100943.41;4975945;28;20038;-71
2022/10/30 02:49:17;;;;;;;8.10;2.75;;;;;;;16.73;98.79;100937.56;4991539;28;20037;-70
2022/10/30 02:51:43;;;;;;;6.05;3.45;;;;;;;16.73;98.88;100943.78;4975582;28;20038;-70
2022/10/30 02:54:10;;;;;;;7.38;3.15;;;;;;;16.77;98.21;100941.06;4987076;28;20526;-69
2022/10/30 02:56:39;;;;;;;4.38;2.75;;;;;;;16.75;98.56;100940.69;4983746;28;20034;-71
2022/10/30 02:59:05;;;;;;;5.22;3.13;;;;;;;16.70;98.13;100949.25;4991657;28;20026;-70
2022/10/30 03:01:31;;;;;;;5.57;2.80;;;;;;;16.65;98.35;100944.94;4968286;28;20265;-70
2022/10/30 03:03:58;;;;;;;6.57;3.35;;;;;;;16.53;98.36;100939.88;5002441;28;20031;-70
2022/10/30 03:06:24;;;;;;;7.07;3.13;;;;;;;16.52;98.10;100948.44;4990777;28;20037;-70
2022/10/30 03:08:50;;;;;;;6.60;3.08;;;;;;;16.50;98.15;100953.50;4992113;28;20443;-70
2022/10/30 03:11:18;;;;;;;4.13;2.90;;;;;;;16.52;97.86;100956.59;4991124;28;20033;-71
2022/10/30 03:13:46;;;;;;;9.00;3.05;;;;;;;16.43;97.77;100950.75;4990861;28;20410;-70
2022/10/30 03:16:14;;;;;;;7.10;3.20;;;;;;;16.39;97.57;100960.81;4992212;28;20038;-69
2022/10/30 03:18:40;;;;;;;9.35;3.50;;;;;;;16.31;98.36;100964.69;5002270;28;20360;-70
2022/10/30 03:21:11;;;;;;;6.78;3.38;;;;;;;16.31;98.07;100972.84;4989642;28;20089;-70
2022/10/30 03:23:36;;;;;;;6.43;3.15;;;;;;;16.31;97.89;100973.63;4991517;28;20049;-70
2022/10/30 03:26:03;;;;;;;11.35;3.40;;;;;;;16.22;97.90;100963.13;4973858;28;20023;-69
2022/10/30 03:28:32;;;;;;;7.25;3.30;;;;;;;16.21;97.61;100961.56;4990766;28;20436;-69
2022/10/30 03:30:59;;;;;;;10.90;3.67;;;;;;;16.20;97.70;100961.97;4990371;28;20022;-70
2022/10/30 03:33:25;;;;;;;11.48;3.50;;;;;;;16.31;97.61;100960.03;4987024;28;20033;-69
2022/10/30 03:35:50;;;;;;;4.90;3.03;;;;;;;16.32;97.68;100960.81;4981609;28;20023;-70
2022/10/30 03:38:16;;;;;;;5.18;2.97;;;;;;;16.27;97.91;100970.91;5006179;28;20184;-70
2022/10/30 03:40:41;;;;;;;7.13;3.03;;;;;;;16.28;97.90;100966.22;5007458;28;20050;-69
2022/10/30 03:43:07;;;;;;;7.32;2.85;;;;;;;16.29;97.42;100954.22;4995407;28;20034;-69
2022/10/30 03:45:33;;;;;;;7.90;3.22;;;;;;;16.25;97.63;100959.66;5004557;28;20026;-70
2022/10/30 03:48:02;;;;;;;5.80;3.33;;;;;;;16.25;97.52;100956.16;4990282;28;20026;-70
2022/10/30 03:50:28;;;;;;;7.20;3.20;;;;;;;16.11;97.23;100961.53;4990953;28;20045;-69
2022/10/30 03:52:55;;;;;;;6.13;2.90;;;;;;;16.17;97.62;100965.44;4990070;28;20034;-70
2022/10/30 03:55:20;;;;;;;8.70;3.33;;;;;;;16.20;97.92;100964.69;4990404;28;20030;-70
2022/10/30 03:57:47;;;;;;;4.70;3.00;;;;;;;16.11;97.40;100965.03;4990495;28;20038;-70
2022/10/30 04:00:18;;;;;;;12.85;2.92;;;;;;;16.10;97.19;100966.19;4990458;28;20423;-70
2022/10/30 04:02:57;;;;;;;9.13;2.92;;;;;;;16.13;97.87;100975.53;4982898;28;20160;-69
2022/10/30 04:05:26;;;;;;;8.10;3.22;;;;;;;16.09;97.63;100978.22;4988509;28;20026;-69
2022/10/30 04:07:58;;;;;;;10.93;2.75;;;;;;;16.01;97.79;100965.78;4989975;28;20038;-70
2022/10/30 04:10:24;;;;;;;8.00;3.47;;;;;;;15.98;97.76;100968.50;4989134;28;20550;-69
2022/10/30 04:12:53;;;;;;;4.53;2.90;;;;;;;16.02;98.03;100975.50;4990840;28;20506;-70
2022/10/30 04:15:19;;;;;;;10.07;3.28;;;;;;;15.97;97.72;100980.50;4989966;28;20040;-69
2022/10/30 04:17:50;;;;;;;8.02;2.60;;;;;;;15.92;97.64;100973.53;4974470;28;20553;-69
2022/10/30 04:20:18;;;;;;;15.13;3.35;;;;;;;15.90;97.81;100967.69;4970442;28;20038;-69
2022/10/30 04:22:44;;;;;;;7.40;3.10;;;;;;;15.89;97.75;100974.28;4985748;28;20089;-69
2022/10/30 04:25:13;;;;;;;7.00;3.33;;;;;;;15.85;97.33;100976.19;4989072;28;20061;-70
2022/10/30 04:27:41;;;;;;;5.93;3.42;;;;;;;15.77;97.80;100971.91;4988407;28;20037;-69
2022/10/30 04:30:08;;;;;;;6.57;2.70;;;;;;;15.73;98.10;100971.13;4974027;28;20448;-69
2022/10/30 04:32:33;;;;;;;8.63;3.70;;;;;;;15.75;97.60;100968.00;4967956;28;20044;-70
2022/10/30 04:34:59;;;;;;;6.80;3.28;;;;;;;15.69;97.62;100962.19;4989371;28;20117;-69
2022/10/30 04:37:24;;;;;;;5.60;2.72;;;;;;;15.77;97.79;100965.69;4973385;28;20036;-69
2022/10/30 04:39:50;;;;;;;9.00;3.38;;;;;;;15.73;97.86;100973.03;4976748;28;20597;-69
2022/10/30 04:42:20;;;;;;;6.25;2.90;;;;;;;15.73;97.44;100973.03;4985434;28;20030;-69
2022/10/30 04:44:45;;;;;;;4.65;2.92;;;;;;;15.65;97.26;100964.09;4989442;28;20049;-69
2022/10/30 04:47:11;;;;;;;7.05;3.47;;;;;;;15.59;97.48;100957.47;4988706;28;20030;-69
2022/10/30 04:49:36;;;;;;;5.13;3.17;;;;;;;15.61;97.78;100954.38;4983985;28;20034;-69
2022/10/30 04:52:02;;;;;;;4.85;2.75;;;;;;;15.64;98.06;100940.81;4989953;28;20042;-69
2022/10/30 04:54:27;;;;;;;4.60;2.78;;;;;;;15.58;98.30;100947.75;4986152;28;20120;-69
2022/10/30 04:56:53;;;;;;;5.57;3.65;;;;;;;15.60;97.89;100948.16;4973935;28;20022;-69
2022/10/30 04:59:21;;;;;;;4.45;3.03;;;;;;;15.61;97.91;100954.38;4974170;28;20035;-69
2022/10/30 05:01:50;;;;;;;5.10;3.03;;;;;;;15.51;97.85;100947.72;4995952;28;20066;-69
2022/10/30 05:04:15;;;;;;;7.28;3.30;;;;;;;15.47;97.68;100957.78;4983382;28;20073;-69
2022/10/30 05:06:41;;;;;;;7.43;3.40;;;;;;;15.46;97.86;100952.75;4981268;28;20026;-69
2022/10/30 05:09:06;;;;;;;5.80;3.08;;;;;;;15.50;98.17;100948.91;4976017;28;20034;-70
2022/10/30 05:11:38;;;;;;;8.45;3.38;;;;;;;15.62;97.41;100942.34;5017764;28;20034;-70
2022/10/30 05:14:05;;;;;;;8.30;2.78;;;;;;;15.67;96.80;100936.56;4972976;28;20405;-68
2022/10/30 05:16:31;;;;;;;9.93;3.03;;;;;;;15.65;97.24;100939.66;4989544;28;20030;-70
2022/10/30 05:18:58;;;;;;;7.60;3.53;;;;;;;15.64;96.91;100943.50;4989051;28;20061;-69
2022/10/30 05:21:23;;;;;;;10.30;3.33;;;;;;;15.61;97.39;100948.94;4973483;28;20042;-69
2022/10/30 05:23:49;;;;;;;5.00;3.17;;;;;;;15.63;97.13;100944.69;4982151;28;20029;-69
2022/10/30 05:26:14;;;;;;;6.40;3.20;;;;;;;15.62;97.30;100945.06;4984696;28;20419;-69
2022/10/30 05:28:41;;;;;;;9.77;3.33;;;;;;;15.55;97.16;100936.88;4987165;28;20034;-70
2022/10/30 05:31:07;;;;;;;5.07;3.30;;;;;;;15.49;97.17;100955.47;4985816;28;20085;-69
2022/10/30 05:33:51;;;;;;;8.93;3.35;;;;;;;15.42;97.67;100957.38;4982702;28;20115;-70
2022/10/30 05:36:16;;;;;;;6.28;3.40;;;;;;;15.43;97.73;100959.69;4987834;28;20475;-69
2022/10/30 05:38:42;;;;;;;5.18;2.92;;;;;;;15.39;97.42;100956.16;4993097;28;20173;-69
2022/10/30 05:41:13;;;;;;;7.00;3.75;;;;;;;15.49;97.73;100958.19;4977726;28;20045;-69
2022/10/30 05:43:39;;;;;;;9.73;3.97;;;;;;;15.44;97.17;100955.06;4992673;28;20231;-70
2022/10/30 05:46:04;;;;;;;7.45;4.00;;;;;;;15.46;97.41;100956.25;4993875;28;20415;-69
2022/10/30 05:48:31;;;;;;;6.32;3.22;;;;;;;15.44;97.14;100961.28;4992554;28;20030;-69
2022/10/30 05:50:56;;;;;;;6.50;2.97;;;;;;;15.42;97.23;100968.22;4992838;28;20085;-69
2022/10/30 05:53:26;;;;;;;8.27;3.00;;;;;;;15.33;97.73;100969.31;4992024;28;20039;-69
2022/10/30 05:55:57;;;;;;;5.20;3.00;;;;;;;15.28;97.41;100963.47;4992018;28;20034;-69
2022/10/30 05:58:23;;;;;;;4.63;2.70;;;;;;;15.30;97.39;100966.59;4992903;28;20037;-69
2022/10/30 06:00:49;;;;;;;5.95;2.70;;;;;;;15.31;97.05;100951.88;4987028;28;20121;-69
2022/10/30 06:03:24;;;;;;;5.50;2.92;;;;;;;15.27;97.16;100956.50;4989030;28;20026;-69
2022/10/30 06:05:51;;;;;;;6.15;2.72;;;;;;;15.22;97.20;100971.19;5007577;28;20037;-70
2022/10/30 06:08:18;;;;;;;7.53;2.75;;;;;;;15.20;97.35;100973.50;4992790;28;20113;-69
2022/10/30 06:10:46;;;;;;;6.75;3.22;;;;;;;15.24;97.52;100973.53;4986162;28;20407;-69
2022/10/30 06:13:21;;;;;;;4.60;2.47;;;;;;;15.25;97.10;100983.22;4989407;28;20038;-70
2022/10/30 06:16:07;;;;;;;9.48;2.83;;;;;;;15.23;97.19;100977.41;4992603;28;20038;-69
2022/10/30 06:19:08;;;;;;;5.75;2.75;;;;;;;15.22;97.14;100986.69;4952215;28;20047;-70
2022/10/30 06:21:33;;;;;;;6.20;3.05;;;;;;;15.18;97.28;100991.31;4983204;28;20113;-69
2022/10/30 06:24:13;;;;;;;8.13;3.05;;;;;;;15.06;97.68;100999.75;4991615;28;20042;-69
2022/10/30 06:26:43;;;;;;;8.02;3.50;;;;;;;15.01;97.50;100991.97;4999473;28;20033;-69
2022/10/30 06:29:12;;;;;;;6.55;2.97;;;;;;;15.09;97.59;100997.06;4999385;28;20113;-68
2022/10/30 06:31:38;;;;;;;8.85;3.40;;;;;;;15.08;97.56;100992.00;5000129;28;20185;-70
2022/10/30 06:34:04;;;;;;;6.40;2.97;;;;;;;15.08;97.66;100992.00;4990929;28;20104;-69
2022/10/30 06:36:31;;;;;;;10.05;3.10;;;;;;;15.09;97.84;100986.22;4989786;28;20384;-70
2022/10/30 06:38:57;;;;;;;5.82;3.17;;;;;;;15.09;98.01;100993.56;4973027;28;20106;-69
2022/10/30 06:41:26;;;;;;;8.77;4.35;;;;;;;15.14;97.90;101004.06;4991967;28;20038;-69
2022/10/30 06:44:08;;;;;;;6.78;3.03;;;;;;;15.22;97.82;101001.03;4990834;28;20037;-70
2022/10/30 06:46:35;;;;;;;6.60;3.20;;;;;;;15.25;97.51;100999.50;4991637;28;20113;-69
2022/10/30 06:49:01;;;;;;;5.55;3.22;;;;;;;15.22;97.64;100992.09;4992025;28;20460;-69
2022/10/30 06:51:27;;;;;;;6.05;2.97;;;;;;;15.20;97.76;100997.91;5007685;28;20039;-69
2022/10/30 06:53:53;;;;;;;8.80;3.38;;;;;;;15.26;97.39;101007.28;4990796;28;20049;-70
2022/10/30 06:56:54;;;;;;;7.82;2.85;;;;;;;15.29;97.86;101003.03;4971540;28;20101;-70
2022/10/30 06:59:43;;;;;;;9.10;3.47;;;;;;;15.28;98.64;101004.97;4986564;28;20066;-69
2022/10/30 07:02:54;;;;;;;8.40;2.80;;;;;;;15.38;99.34;101012.41;4931604;29;20035;-69
2022/10/30 07:05:19;;;;;;;4.95;2.90;;;;;;;15.52;98.83;101014.44;4980395;28;20053;-69
2022/10/30 07:07:45;;;;;;;6.47;2.78;;;;;;;15.50;98.92;101014.06;4990285;28;20042;-69
2022/10/30 07:10:10;;;;;;;5.50;3.00;;;;;;;15.50;98.95;101014.06;4990179;28;20029;-69
2022/10/30 07:12:57;;;;;;;7.57;3.28;;;;;;;15.61;99.05;101014.09;4990890;28;20038;-70
2022/10/30 07:15:41;;;;;;;4.63;2.85;;;;;;;15.73;99.03;101014.56;5001186;28;20057;-69
2022/10/30 07:18:29;;;;;;;7.03;2.88;;;;;;;15.82;98.88;101016.91;4987614;28;20499;-69
2022/10/30 07:20:57;;;;;;;5.38;3.20;;;;;;;15.94;98.70;101019.31;4983515;28;20498;-69
2022/10/30 07:23:24;;;;;;;12.10;3.15;;;;;;;16.03;98.27;101020.53;4984605;28;20038;-69
2022/10/30 07:25:51;;;;;;;7.18;3.25;;;;;;;16.14;98.40;101021.31;4974815;28;20038;-69
2022/10/30 07:28:21;;;;;;;6.50;3.38;;;;;;;16.09;99.32;101016.28;4987260;28;20035;-69
2022/10/30 07:31:16;;;;;;;4.95;3.08;;;;;;;16.18;99.57;101021.38;4971660;28;20124;-70
2022/10/30 07:34:01;;;;;;;5.00;2.97;;;;;;;16.27;99.41;101024.50;4961433;28;20046;-69
2022/10/30 07:36:40;;;;;;;8.82;4.07;;;;;;;16.32;98.96;101015.94;4972629;28;20487;-70
2022/10/30 07:39:28;;;;;;;9.05;2.72;;;;;;;16.38;98.41;101028.00;4959329;28;20034;-69
2022/10/30 07:42:08;;;;;;;6.75;3.05;;;;;;;16.41;98.06;101029.19;4980893;28;20034;-69
2022/10/30 07:45:09;;;;;;;5.88;2.78;;;;;;;16.41;98.48;101021.81;4970546;28;20054;-69
2022/10/30 07:47:54;;;;;;;5.95;3.03;;;;;;;16.47;98.60;101027.66;4983858;28;20204;-69
2022/10/30 07:50:35;;;;;;;6.78;2.75;;;;;;;16.50;98.46;101029.63;4997067;28;20030;-69
2022/10/30 07:53:00;;;;;;;5.97;2.97;;;;;;;16.50;98.16;101035.84;4987094;28;20038;-69
2022/10/30 07:55:29;;;;;;;6.03;2.72;;;;;;;16.53;97.99;101037.78;4987133;28;20755;-69
2022/10/30 07:58:09;;;;;;;6.10;2.85;;;;;;;16.53;98.62;101037.78;4990829;28;20039;-69
2022/10/30 08:00:53;;;;;;;5.85;2.88;;;;;;;16.62;98.42;101049.09;4990202;28;20584;-70
2022/10/30 08:03:27;;;;;;;6.00;2.78;;;;;;;16.75;98.88;101054.91;4997391;28;20053;-69
2022/10/30 08:05:55;;;;;;;6.75;2.88;;;;;;;16.87;99.02;101051.84;4998708;28;20033;-69
2022/10/30 08:08:26;;;;;;;;;;;;;;;16.92;99.55;101057.66;4986621;28;20019;-69
2022/10/30 08:11:04;;;;;;;6.95;3.45;;;;;;;17.14;98.95;101050.31;4984824;28;19964;-71
2022/10/30 08:13:30;;;;;;;4.95;2.85;;;;;;;17.26;98.87;101058.09;4984317;28;20023;-70
2022/10/30 08:15:55;;;;;;;5.50;2.90;;;;;;;17.35;98.58;101058.47;4988747;28;20038;-70
2022/10/30 08:18:20;;;;;;;8.23;3.53;;;;;;;17.50;98.25;101062.00;5007743;28;20506;-70
2022/10/30 08:20:49;;;;;;;7.70;3.00;;;;;;;17.67;98.00;101061.94;4972834;28;20038;-70
2022/10/30 08:23:16;;;;;;;3.67;2.75;;;;;;;17.86;97.29;101058.78;4990431;28;20045;-71
2022/10/30 08:25:42;;;;;;;6.25;3.10;;;;;;;18.02;97.09;101061.84;4988479;28;20030;-70
2022/10/30 08:28:07;;;;;;;6.50;3.03;;;;;;;18.14;95.62;101059.88;4989784;28;20408;-70
2022/10/30 08:30:37;;;;;;;4.95;2.63;;;;;;;18.15;93.74;101058.69;4990231;28;20057;-70
2022/10/30 08:33:12;;;;;;;5.93;2.58;;;;;;;18.27;94.08;101050.06;4990100;28;20030;-70
2022/10/30 08:35:59;;;;;;;5.10;2.70;;;;;;;18.42;93.47;101057.81;4967021;28;20435;-70
2022/10/30 08:38:26;;;;;;;4.50;2.33;;;;;;;18.51;92.48;101055.41;4989136;28;20116;-71
2022/10/30 08:41:04;;;;;;;4.13;2.50;;;;;;;18.68;92.05;101053.75;4978781;28;20037;-70
2022/10/30 08:43:32;;;;;;;9.07;2.75;;;;;;;18.73;91.16;101053.34;5000825;28;20102;-70
2022/10/30 08:45:59;;;;;;;6.32;2.88;;;;;;;18.87;90.32;101050.53;4988958;28;20030;-71
2022/10/30 08:48:25;;;;;;;5.75;2.55;;;;;;;18.92;89.80;101056.34;4987800;28;20048;-70
2022/10/30 08:50:51;;;;;;;8.02;2.85;;;;;;;18.99;89.65;101058.22;4985276;28;20030;-70
2022/10/30 08:53:24;;;;;;;7.63;2.50;;;;;;;19.09;88.65;101067.50;4988235;28;20477;-71
2022/10/30 08:55:52;;;;;;;12.27;2.25;;;;;;;19.10;88.38;101069.84;4986609;28;20026;-71
2022/10/30 08:58:24;;;;;;;9.25;2.55;;;;;;;19.03;87.94;101063.66;4987446;28;20503;-71
2022/10/30 09:00:50;;;;;;;3.35;2.10;;;;;;;19.06;87.88;101063.63;4968608;28;20041;-71
2022/10/30 09:03:15;;;;;;;5.65;2.30;;;;;;;18.97;88.27;101060.56;4986846;28;20046;-71
2022/10/30 09:06:00;;;;;;;4.63;2.38;;;;;;;19.05;88.79;101062.06;4989162;28;20034;-71
2022/10/30 09:08:45;;;;;;;7.80;2.67;;;;;;;19.19;88.33;101051.03;4987507;28;20121;-72
2022/10/30 09:11:29;;;;;;;3.85;2.10;;;;;;;19.31;87.78;101069.69;4992998;28;20077;-69
2022/10/30 09:13:55;;;;;;;5.07;2.40;;;;;;;19.42;87.62;101064.13;4990732;28;20031;-71
2022/10/30 09:16:21;;;;;;;6.30;2.63;;;;;;;19.57;87.48;101057.34;4995419;28;20032;-70
2022/10/30 09:18:48;;;;;;;6.82;2.35;;;;;;;19.63;87.18;101070.16;4989620;28;20031;-70
2022/10/30 09:21:13;;;;;;;5.95;2.80;;;;;;;19.78;86.45;101065.34;4991238;28;20084;-70
2022/10/30 09:23:43;;;;;;;3.67;2.20;;;;;;;19.89;86.35;101071.47;4992878;28;20034;-70
2022/10/30 09:26:28;;;;;;;6.40;2.88;;;;;;;19.95;85.48;101064.38;4990782;28;20045;-70
2022/10/30 09:29:03;;;;;;;6.32;2.40;;;;;;;19.98;84.95;101073.69;4974683;28;20132;-70
2022/10/30 09:31:55;;;;;;;;;;;;;;;20.12;84.77;101073.53;4991734;28;20124;-70
2022/10/30 09:34:23;;;;;;;5.47;2.25;;;;;;;20.20;84.74;101072.31;5000556;28;19972;-71
2022/10/30 09:37:11;;;;;;;4.78;2.20;;;;;;;20.28;84.60;101071.81;4997142;28;20038;-70
2022/10/30 09:39:37;;;;;;;7.13;2.55;;;;;;;20.28;84.63;101071.81;4990087;28;20034;-70
2022/10/30 09:42:18;;;;;;;6.57;2.90;;;;;;;20.42;84.25;101068.88;5005306;28;20030;-71
2022/10/30 09:45:21;;;;;;;6.53;2.38;;;;;;;20.50;83.75;101069.56;4987381;28;20029;-70
2022/10/30 09:48:15;;;;;;;6.72;3.30;;;;;;;20.54;82.90;101075.75;4995272;28;20509;-70
2022/10/30 09:51:11;;;;;;;6.57;2.03;;;;;;;20.68;83.50;101068.13;4986357;28;20037;-70
2022/10/30 09:54:00;;;;;;;3.47;2.22;;;;;;;20.83;83.23;101073.41;4991488;28;20067;-70
2022/10/30 09:57:03;;;;;;;4.07;2.50;;;;;;;20.88;82.97;101073.72;4992414;28;20038;-71
2022/10/30 10:00:02;;;;;;;4.68;2.60;;;;;;;20.98;83.10;101086.44;4975604;28;20046;-71
2022/10/30 10:02:43;;;;;;;4.57;2.35;;;;;;;21.14;82.54;101083.91;4961578;28;20503;-70
2022/10/30 10:05:15;;;;;;;5.13;2.60;;;;;;;21.14;83.12;101074.88;4993199;28;20487;-70
2022/10/30 10:08:05;;;;;;;3.88;2.33;;;;;;;21.28;82.79;101078.19;4983379;28;20097;-70
2022/10/30 10:11:08;;;;;;;6.63;2.22;;;;;;;21.38;82.05;101077.25;4982663;28;20631;-70
2022/10/30 10:13:46;;;;;;;6.95;2.88;;;;;;;21.36;81.52;101079.63;4986210;28;20038;-70
2022/10/30 10:16:19;;;;;;;3.90;2.50;;;;;;;21.33;81.45;101080.44;4993449;28;20493;-70
2022/10/30 10:18:47;;;;;;;3.13;1.90;;;;;;;21.39;81.50;101078.00;5013458;28;20056;-71
2022/10/30 10:21:35;;;;;;;5.20;2.47;;;;;;;21.45;81.18;101068.09;5001297;28;20096;-70
2022/10/30 10:24:03;;;;;;;4.63;2.00;;;;;;;21.52;81.51;101060.53;4984007;28;20542;-71
2022/10/30 10:26:45;;;;;;;4.20;2.10;;;;;;;21.64;81.09;101061.13;4988485;28;20035;-70
2022/10/30 10:29:13;;;;;;;5.10;2.75;;;;;;;21.68;81.10;101067.31;4992495;28;20109;-71
2022/10/30 10:32:07;;;;;;;6.88;2.85;;;;;;;21.71;80.87;101056.28;5003597;23;20098;-65
2022/10/30 10:34:48;;;;;;;7.85;2.55;;;;;;;21.74;81.12;101054.66;5001791;28;20035;-66
2022/10/30 10:37:40;;;;;;;4.43;2.13;;;;;;;21.76;80.84;101058.53;4992044;28;20153;-65
2022/10/30 10:40:11;;;;;;;6.43;2.40;;;;;;;21.69;81.23;101058.66;4950313;28;20055;-65
2022/10/30 10:42:36;;;;;;;6.05;2.47;;;;;;;21.75;80.91;101048.75;4991538;28;20039;-65
2022/10/30 10:45:16;;;;;;;4.18;2.20;;;;;;;21.84;80.96;101053.69;4980152;28;20038;-65
2022/10/30 10:48:10;;;;;;;4.40;2.10;;;;;;;21.89;81.11;101047.75;4982334;28;20030;-66
2022/10/30 10:50:45;;;;;;;3.67;1.88;;;;;;;21.93;80.42;101045.72;4989926;28;20498;-66
2022/10/30 10:53:20;;;;;;;4.60;1.90;;;;;;;21.98;80.28;101053.44;4986101;28;20041;-66
2022/10/30 10:55:50;;;;;;;5.07;2.78;;;;;;;22.08;80.11;101046.97;4980216;28;20472;-66
2022/10/30 10:58:38;;;;;;;4.43;2.08;;;;;;;22.02;80.06;101041.19;4982131;28;20075;-66
2022/10/30 11:01:07;;;;;;;7.03;2.20;;;;;;;22.07;79.78;101048.94;4976813;28;20038;-66
2022/10/30 11:03:47;;;;;;;6.00;2.53;;;;;;;22.09;80.00;101038.28;4983150;28;20027;-66
2022/10/30 11:06:21;;;;;;;3.72;1.98;;;;;;;22.09;79.80;101049.28;4986707;28;20330;-66
2022/10/30 11:08:48;;;;;;;6.70;2.25;;;;;;;22.08;79.52;101053.22;4991331;28;20052;-66
2022/10/30 11:11:13;;;;;;;5.40;2.15;;;;;;;22.03;79.41;101047.44;4977724;28;20470;-66
2022/10/30 11:13:42;;;;;;;6.30;1.95;;;;;;;22.07;78.51;101037.94;4982232;28;20034;-65
2022/10/30 11:16:32;;;;;;;4.60;2.40;;;;;;;21.94;78.50;101037.03;4983621;28;20463;-66
2022/10/30 11:19:00;;;;;;;4.90;2.35;;;;;;;21.94;78.81;101045.28;4986522;28;20030;-66
2022/10/30 11:21:28;;;;;;;4.63;2.00;;;;;;;21.98;79.54;101035.00;4979147;28;20043;-65
2022/10/30 11:23:54;;;;;;;3.45;1.95;;;;;;;22.13;79.12;101022.53;4981122;28;20407;-66
2022/10/30 11:26:22;;;;;;;4.65;2.15;;;;;;;22.18;78.98;101024.78;4985521;28;20034;-66
2022/10/30 11:28:50;;;;;;;4.05;2.17;;;;;;;22.18;78.95;101035.75;4980820;28;20509;-66
2022/10/30 11:31:33;;;;;;;3.42;2.35;;;;;;;22.23;78.74;101037.22;4981518;28;20118;-66
2022/10/30 11:34:30;;;;;;;5.22;2.05;;;;;;;22.24;78.84;101031.31;4988022;28;20045;-66
2022/10/30 11:37:15;;;;;;;3.33;1.90;;;;;;;22.23;78.96;101048.22;4972745;28;20061;-66
2022/10/30 11:39:41;;;;;;;6.25;2.25;;;;;;;22.16;79.02;101042.88;4936277;28;20050;-66
2022/10/30 11:42:09;;;;;;;3.80;1.98;;;;;;;22.19;79.10;101039.28;4931461;29;20059;-66
2022/10/30 11:44:38;;;;;;;7.78;2.00;;;;;;;22.26;78.70;101037.16;4940498;29;20055;-66
2022/10/30 11:47:05;;;;;;;5.43;2.47;;;;;;;22.21;78.88;101040.41;4944470;29;20050;-66
2022/10/30 11:49:44;;;;;;;4.47;2.05;;;;;;;22.26;78.13;101033.66;4923634;28;20130;-66